Aldie, Virginia
Current Conditions -  °F | °C
As of 4:15 PM on Monday 24 Nov 2014 (Local Time) from KJYO Reporting Station
Clear Clear  
Wind Chill: 70°   Ceiling: Unl
Heat Index: 70°   Visibility: 10mi
Dew Point: 55°   Wind: 13mph
Humidity: 60%   Direction: 220°SW
Pressure: 29.64"   Gusts: 23mph
Location:  38.98°N, 77.64°W
Report Text: KJYO 242115Z AUTO 22011G20KT 10SM CLR 21/13 A2964 RMK AO2
Loading
Personal Weather Stations






























Interactive Weather Map New forecast layout! Learn more

10-Day Weather Forecast

Advertisements
Track Severe Weather on mobile